createdAt,value
2018-06-25T00:01:49.204Z,97657.78
2018-06-25T00:04:18.820Z,97654.47
2018-06-25T00:06:48.664Z,97655.59
2018-06-25T00:09:18.342Z,97657.47
2018-06-25T00:11:47.995Z,97656.00
2018-06-25T00:14:17.693Z,97660.59
2018-06-25T00:16:47.284Z,97662.25
2018-06-25T00:19:16.874Z,97659.44
2018-06-25T00:21:46.500Z,97659.50
2018-06-25T00:24:16.830Z,97662.20
2018-06-25T00:26:46.497Z,97665.29
2018-06-25T00:29:16.159Z,97668.05
2018-06-25T00:37:29.619Z,97677.16
2018-06-25T00:39:59.276Z,97671.98
2018-06-25T00:42:30.280Z,97675.55
2018-06-25T00:44:59.958Z,97680.45
2018-06-25T00:47:29.548Z,97685.86
2018-06-25T00:49:59.168Z,97678.06
2018-06-25T00:52:28.763Z,97680.23
2018-06-25T00:54:58.621Z,97679.20
2018-06-25T00:57:28.444Z,97679.33
2018-06-25T00:59:58.655Z,97677.75
2018-06-25T01:02:28.280Z,97679.78
2018-06-25T01:04:57.996Z,97669.95
2018-06-25T01:07:28.828Z,97674.31
2018-06-25T01:10:01.170Z,97670.54
2018-06-25T01:15:08.463Z,97666.81
2018-06-25T01:17:38.735Z,97665.17
2018-06-25T01:20:08.371Z,97661.95
2018-06-25T01:22:38.150Z,97662.92
2018-06-25T01:25:07.836Z,97661.42
2018-06-25T01:30:13.316Z,97657.92
2018-06-25T01:32:44.824Z,97664.70
2018-06-25T01:35:14.928Z,97654.09
2018-06-25T01:37:44.598Z,97655.59
2018-06-25T01:40:14.613Z,97654.83
2018-06-25T01:42:44.569Z,97646.73
2018-06-25T01:45:21.187Z,97644.55
2018-06-25T01:47:51.749Z,97650.00
2018-06-25T01:50:22.389Z,97653.91
2018-06-25T01:52:53.838Z,97655.53
2018-06-25T01:55:23.990Z,97654.26
2018-06-25T01:57:55.703Z,97652.02
2018-06-25T02:00:26.000Z,97653.98
2018-06-25T02:02:56.433Z,97652.69
2018-06-25T02:05:26.654Z,97645.47
2018-06-25T02:07:58.008Z,97648.52
2018-06-25T02:10:29.534Z,97651.91
2018-06-25T02:12:59.278Z,97650.20
2018-06-25T02:15:30.113Z,97655.59
2018-06-25T02:18:00.639Z,97653.25
2018-06-25T02:20:30.872Z,97647.78
2018-06-25T02:23:01.810Z,97648.27
2018-06-25T02:25:32.307Z,97651.62
2018-06-25T02:28:02.789Z,97648.94
2018-06-25T02:30:54.482Z,97645.48
2018-06-25T02:33:25.092Z,97647.55
2018-06-25T02:35:55.445Z,97648.16
2018-06-25T02:38:25.591Z,97654.19
2018-06-25T02:40:55.518Z,97649.80
2018-06-25T02:43:26.023Z,97649.86
2018-06-25T02:45:55.859Z,97651.20
2018-06-25T02:48:27.310Z,97636.80
2018-06-25T02:50:57.113Z,97632.06
2018-06-25T02:53:27.029Z,97639.89
2018-06-25T02:58:32.277Z,97648.91
2018-06-25T03:01:02.394Z,97648.67
2018-06-25T03:03:35.903Z,97641.65
2018-06-25T03:06:06.147Z,97646.18
2018-06-25T03:08:40.254Z,97644.63
2018-06-25T03:11:10.435Z,97644.98
2018-06-25T03:13:40.248Z,97650.75
2018-06-25T03:16:10.568Z,97660.13
2018-06-25T03:18:41.084Z,97651.48
2018-06-25T03:21:17.228Z,97659.16
2018-06-25T03:23:46.834Z,97657.84
2018-06-25T03:26:16.452Z,97659.98
2018-06-25T03:28:49.311Z,97666.63
2018-06-25T03:31:18.920Z,97664.72
2018-06-25T03:36:28.887Z,97666.83
2018-06-25T03:38:58.549Z,97668.92
2018-06-25T03:41:29.777Z,97670.88
2018-06-25T03:43:59.707Z,97670.28
2018-06-25T03:46:29.499Z,97669.48
2018-06-25T03:48:59.259Z,97674.11
2018-06-25T03:51:28.922Z,97676.36
2018-06-25T03:56:35.622Z,97685.23
2018-06-25T03:59:05.494Z,97685.02
2018-06-25T04:01:39.359Z,97687.74
2018-06-25T04:04:09.064Z,97685.52
2018-06-25T04:06:38.722Z,97683.97
2018-06-25T04:09:11.028Z,97682.63
2018-06-25T04:11:42.709Z,97689.05
2018-06-25T04:14:13.149Z,97685.36
2018-06-25T04:16:43.480Z,97688.17
2018-06-25T04:19:13.672Z,97692.82
2018-06-25T04:21:44.895Z,97691.63
2018-06-25T04:24:14.505Z,97694.50
2018-06-25T04:26:44.147Z,97697.02
2018-06-25T04:29:13.819Z,97697.33
2018-06-25T04:31:43.427Z,97701.68
2018-06-25T04:34:13.004Z,97706.20
2018-06-25T04:36:42.620Z,97708.27
2018-06-25T04:39:12.205Z,97705.89
2018-06-25T04:41:41.821Z,97707.07
2018-06-25T04:44:11.424Z,97713.85
2018-06-25T04:46:41.710Z,97712.78
2018-06-25T04:49:11.292Z,97713.40
2018-06-25T04:51:40.906Z,97714.95
2018-06-25T04:54:10.563Z,97717.46
2018-06-25T04:56:40.442Z,97724.63
2018-06-25T04:59:10.131Z,97724.00
2018-06-25T05:01:39.723Z,97728.16
2018-06-25T05:04:09.345Z,97731.67
2018-06-25T05:06:38.980Z,97735.30
2018-06-25T05:09:09.497Z,97736.87
2018-06-25T05:14:14.512Z,97744.42
2018-06-25T05:16:44.232Z,97748.65
2018-06-25T05:19:13.888Z,97742.66
2018-06-25T05:21:43.524Z,97749.55
2018-06-25T05:24:13.385Z,97747.26
2018-06-25T05:26:43.068Z,97745.33
2018-06-25T05:29:12.751Z,97746.51
2018-06-25T05:31:42.345Z,97750.28
2018-06-25T05:34:11.989Z,97751.24
2018-06-25T05:36:41.551Z,97755.83
2018-06-25T05:39:12.261Z,97757.66
2018-06-25T05:41:42.580Z,97762.88
2018-06-25T05:44:12.644Z,97758.28
2018-06-25T05:46:42.216Z,97760.39
2018-06-25T05:49:12.014Z,97764.77
2018-06-25T05:51:41.689Z,97764.98
2018-06-25T05:54:11.293Z,97770.26
2018-06-25T05:56:40.916Z,97772.20
2018-06-25T05:59:10.637Z,97774.05
2018-06-25T06:01:40.384Z,97776.43
2018-06-25T06:04:10.011Z,97778.05
2018-06-25T06:06:39.658Z,97783.69
2018-06-25T06:09:10.032Z,97777.63
2018-06-25T06:11:39.689Z,97787.08
2018-06-25T06:14:09.328Z,97786.10
2018-06-25T06:16:38.945Z,97785.47
2018-06-25T06:19:08.648Z,97786.39
2018-06-25T06:21:38.297Z,97789.01
2018-06-25T06:24:08.288Z,97790.45
2018-06-25T06:26:37.992Z,97799.52
2018-06-25T06:29:07.633Z,97796.47
2018-06-25T06:31:37.295Z,97797.73
2018-06-25T06:34:06.957Z,97797.59
2018-06-25T06:36:36.681Z,97798.19
2018-06-25T06:39:09.780Z,97801.13
2018-06-25T06:41:39.491Z,97795.94
2018-06-25T06:44:09.269Z,97796.89
2018-06-25T06:46:38.912Z,97800.08
2018-06-25T06:49:08.590Z,97800.11
2018-06-25T06:51:38.297Z,97805.11
2018-06-25T06:54:08.185Z,97807.92
2018-06-25T06:56:37.863Z,97808.91
2018-06-25T06:59:07.677Z,97810.59
2018-06-25T07:01:37.440Z,97810.41
2018-06-25T07:04:07.333Z,97812.97
2018-06-25T07:06:37.000Z,97813.53
2018-06-25T07:09:09.294Z,97813.67
2018-06-25T07:11:38.934Z,97814.37
2018-06-25T07:14:09.302Z,97811.91
2018-06-25T07:16:40.045Z,97804.20
2018-06-25T07:19:10.010Z,97810.23
2018-06-25T07:21:40.560Z,97810.34
2018-06-25T07:24:10.313Z,97813.87
2018-06-25T07:26:40.223Z,97818.39
2018-06-25T07:29:09.909Z,97820.69
2018-06-25T07:31:39.644Z,97818.69
2018-06-25T07:34:09.400Z,97825.05
2018-06-25T07:36:39.158Z,97823.94
2018-06-25T07:39:09.636Z,97826.84
2018-06-25T07:41:39.349Z,97825.70
2018-06-25T07:44:09.009Z,97827.50
2018-06-25T07:46:38.737Z,97825.22
2018-06-25T07:49:08.500Z,97825.03
2018-06-25T07:51:38.132Z,97825.88
2018-06-25T07:54:07.850Z,97828.26
2018-06-25T07:56:37.520Z,97828.36
2018-06-25T07:59:07.241Z,97818.47
2018-06-25T08:01:37.004Z,97824.24
2018-06-25T08:04:06.776Z,97810.62
2018-06-25T08:06:36.376Z,97814.37
2018-06-25T08:09:08.729Z,97811.09
2018-06-25T08:11:38.486Z,97802.91
2018-06-25T08:14:08.258Z,97796.41
2018-06-25T08:16:39.461Z,97793.45
2018-06-25T08:19:08.990Z,97796.95
2018-06-25T08:21:38.651Z,97795.34
2018-06-25T08:24:10.207Z,97795.83
2018-06-25T08:26:39.952Z,97797.47
2018-06-25T08:29:09.656Z,97802.75
2018-06-25T08:31:39.231Z,97809.16
2018-06-25T08:34:08.966Z,97801.52
2018-06-25T08:39:13.752Z,97817.16
2018-06-25T08:41:43.363Z,97812.03
2018-06-25T08:44:12.963Z,97807.22
2018-06-25T08:46:42.627Z,97806.77
2018-06-25T08:49:12.499Z,97812.27
2018-06-25T08:51:42.380Z,97809.02
2018-06-25T08:54:12.031Z,97805.41
2018-06-25T08:56:41.708Z,97805.02
2018-06-25T08:59:11.335Z,97806.63
2018-06-25T09:01:40.987Z,97806.34
2018-06-25T09:04:10.596Z,97810.14
2018-06-25T09:06:40.215Z,97809.52
2018-06-25T09:09:11.376Z,97814.06
2018-06-25T09:11:41.066Z,97814.69
2018-06-25T09:14:10.791Z,97809.39
2018-06-25T09:16:40.515Z,97813.55
2018-06-25T09:19:10.159Z,97808.86
2018-06-25T09:21:39.961Z,97811.53
2018-06-25T09:24:09.625Z,97816.72
2018-06-25T09:26:40.743Z,97813.95
2018-06-25T09:29:11.555Z,97813.49
2018-06-25T09:31:41.252Z,97810.36
2018-06-25T09:34:16.188Z,97809.72
2018-06-25T09:36:45.845Z,97811.13
2018-06-25T09:39:15.585Z,97808.98
2018-06-25T09:41:45.603Z,97805.58
2018-06-25T09:44:15.072Z,97803.42
2018-06-25T09:46:45.072Z,97805.92
2018-06-25T09:49:14.644Z,97803.78
2018-06-25T09:51:44.294Z,97799.55
2018-06-25T09:54:14.307Z,97799.28
2018-06-25T09:56:44.050Z,97797.97
2018-06-25T09:59:13.768Z,97801.50
2018-06-25T10:01:43.433Z,97794.41
2018-06-25T10:04:13.112Z,97802.41
2018-06-25T10:06:42.944Z,97796.30
2018-06-25T10:09:13.247Z,97793.56
2018-06-25T10:11:43.512Z,97796.52
2018-06-25T10:14:13.236Z,97795.07
2018-06-25T10:16:42.907Z,97792.66
2018-06-25T10:19:12.581Z,97792.36
2018-06-25T10:21:42.356Z,97794.23
2018-06-25T10:24:12.207Z,97792.23
2018-06-25T10:26:41.896Z,97792.70
2018-06-25T10:29:11.552Z,97801.49
2018-06-25T10:31:41.273Z,97797.94
2018-06-25T10:34:10.989Z,97794.22
2018-06-25T10:36:40.684Z,97803.12
2018-06-25T10:39:11.067Z,97802.83
2018-06-25T10:41:41.032Z,97805.73
2018-06-25T10:44:10.775Z,97809.02
2018-06-25T10:46:40.684Z,97810.41
2018-06-25T10:49:10.509Z,97807.58
2018-06-25T10:51:40.303Z,97813.91
2018-06-25T10:54:09.894Z,97817.95
2018-06-25T11:08:10.555Z,97809.83
2018-06-25T11:13:41.596Z,97813.57
2018-06-25T11:16:19.974Z,97815.13
2018-06-25T11:19:03.996Z,97817.51
2018-06-25T11:24:28.692Z,97810.27
2018-06-25T11:27:18.258Z,97814.22
2018-06-25T11:30:00.316Z,97820.45
2018-06-25T11:38:15.028Z,97824.20
2018-06-25T11:41:00.171Z,97821.66
2018-06-25T11:49:17.730Z,97825.69
2018-06-25T11:55:00.032Z,97824.82
2018-06-25T11:57:38.711Z,97825.92
2018-06-25T12:00:21.505Z,97826.80
2018-06-25T12:03:05.227Z,97823.80
2018-06-25T12:05:40.352Z,97825.73
2018-06-25T12:08:13.518Z,97827.37
2018-06-25T12:10:46.285Z,97828.65
2018-06-25T12:13:18.284Z,97832.36
2018-06-25T12:15:50.660Z,97824.92
2018-06-25T12:18:22.772Z,97820.36
2018-06-25T12:20:54.764Z,97821.34
2018-06-25T12:23:27.465Z,97824.31
2018-06-25T12:26:00.249Z,97825.05
2018-06-25T12:28:33.067Z,97823.86
2018-06-25T12:31:06.157Z,97828.33
2018-06-25T12:33:39.176Z,97831.39
2018-06-25T12:36:12.984Z,97827.49
2018-06-25T12:38:44.973Z,97821.29
2018-06-25T12:41:16.922Z,97821.66
2018-06-25T12:43:50.106Z,97822.88
2018-06-25T12:46:22.724Z,97822.64
2018-06-25T12:48:55.602Z,97831.77
2018-06-25T12:51:27.518Z,97830.98
2018-06-25T12:54:02.473Z,97839.22
2018-06-25T12:56:34.599Z,97844.83
2018-06-25T12:59:07.373Z,97852.09
2018-06-25T13:01:39.728Z,97844.70
2018-06-25T13:04:12.833Z,97848.94
2018-06-25T13:06:45.452Z,97844.88
2018-06-25T13:09:17.184Z,97848.77
2018-06-25T13:11:49.533Z,97848.56
2018-06-25T13:14:23.389Z,97843.19
2018-06-25T13:16:56.435Z,97845.55
2018-06-25T13:22:00.294Z,97855.17
2018-06-25T13:24:32.645Z,97850.24
2018-06-25T13:27:04.532Z,97837.52
2018-06-25T13:29:36.941Z,97834.83
2018-06-25T13:32:08.683Z,97835.63
2018-06-25T13:34:41.003Z,97838.05
2018-06-25T13:37:13.035Z,97840.12
2018-06-25T13:39:45.152Z,97833.52
2018-06-25T13:42:18.345Z,97833.84
2018-06-25T13:44:50.295Z,97832.74
2018-06-25T13:47:23.285Z,97836.95
2018-06-25T13:49:55.379Z,97842.64
2018-06-25T13:52:30.202Z,97851.77
2018-06-25T13:55:02.362Z,97862.80
2018-06-25T13:57:35.831Z,97860.76
2018-06-25T14:00:08.745Z,97854.32
2018-06-25T14:02:40.905Z,97852.41
2018-06-25T14:05:12.546Z,97852.46
2018-06-25T14:07:44.423Z,97855.37
2018-06-25T14:10:16.763Z,97850.59
2018-06-25T14:12:48.793Z,97845.06
2018-06-25T14:15:20.472Z,97845.58
2018-06-25T14:17:52.100Z,97842.88
2018-06-25T14:20:23.807Z,97843.59
2018-06-25T14:22:55.391Z,97840.13
2018-06-25T14:25:27.580Z,97830.61
2018-06-25T14:28:06.665Z,97824.75
2018-06-25T14:30:45.612Z,97830.92
2018-06-25T14:33:19.549Z,97828.13
2018-06-25T14:35:51.433Z,97828.01
2018-06-25T14:38:22.914Z,97826.40
2018-06-25T14:40:57.300Z,97823.26
2018-06-25T14:43:29.137Z,97825.45
2018-06-25T14:46:01.293Z,97825.61
2018-06-25T14:48:34.189Z,97824.05
2018-06-25T14:51:06.724Z,97821.73
2018-06-25T14:53:39.418Z,97818.30
2018-06-25T14:56:11.206Z,97814.17
2018-06-25T14:58:43.393Z,97812.44
2018-06-25T15:01:16.105Z,97808.80
2018-06-25T15:03:49.012Z,97806.12
2018-06-25T15:06:22.711Z,97812.38
2018-06-25T15:08:54.233Z,97814.28
2018-06-25T15:11:25.940Z,97811.88
2018-06-25T15:13:57.144Z,97816.19
2018-06-25T15:16:28.461Z,97823.40
2018-06-25T15:19:00.936Z,97809.06
2018-06-25T15:21:42.508Z,97815.13
2018-06-25T15:24:31.133Z,97815.87
2018-06-25T15:27:16.013Z,97816.36
2018-06-25T15:29:53.520Z,97810.22
2018-06-25T15:32:34.534Z,97817.82
2018-06-25T15:35:08.178Z,97813.23
2018-06-25T15:37:40.433Z,97816.14
2018-06-25T15:40:12.536Z,97809.82
2018-06-25T15:42:44.655Z,97809.19
2018-06-25T15:45:17.070Z,97807.34
2018-06-25T15:47:49.387Z,97799.91
2018-06-25T15:50:21.471Z,97807.02
2018-06-25T15:52:53.578Z,97796.26
2018-06-25T15:55:25.296Z,97798.36
2018-06-25T15:57:58.157Z,97789.18
2018-06-25T16:00:30.243Z,97789.17
2018-06-25T16:03:02.647Z,97789.11
2018-06-25T16:05:34.624Z,97787.19
2018-06-25T16:08:06.855Z,97783.47
2018-06-25T16:10:39.863Z,97786.11
2018-06-25T16:13:12.100Z,97785.84
2018-06-25T16:15:44.570Z,97791.00
2018-06-25T16:18:18.803Z,97787.66
2018-06-25T16:20:52.276Z,97788.54
2018-06-25T16:23:26.095Z,97785.45
2018-06-25T16:26:05.269Z,97791.96
2018-06-25T16:28:42.766Z,97788.72
2018-06-25T16:31:18.892Z,97791.84
2018-06-25T16:33:51.989Z,97791.30
2018-06-25T16:36:27.502Z,97794.94
2018-06-25T16:39:09.623Z,97795.97
2018-06-25T16:41:46.399Z,97796.95
2018-06-25T16:44:22.320Z,97800.25
2018-06-25T16:46:57.096Z,97805.95
2018-06-25T16:52:13.487Z,97813.20
2018-06-25T16:54:54.707Z,97815.64
2018-06-25T16:57:38.342Z,97815.24
2018-06-25T17:00:15.480Z,97812.52
2018-06-25T17:02:49.785Z,97817.03
2018-06-25T17:05:29.670Z,97816.00
2018-06-25T17:10:43.833Z,97814.64
2018-06-25T17:13:23.113Z,97809.61
2018-06-25T17:15:58.449Z,97816.80
2018-06-25T17:18:46.146Z,97817.87
2018-06-25T17:21:19.355Z,97827.12
2018-06-25T17:23:52.864Z,97823.19
2018-06-25T17:26:24.985Z,97819.39
2018-06-25T17:28:58.338Z,97822.59
2018-06-25T17:31:31.164Z,97821.34
2018-06-25T17:34:03.768Z,97822.76
2018-06-25T17:36:37.301Z,97827.25
2018-06-25T17:39:10.688Z,97822.07
2018-06-25T17:41:47.142Z,97820.52
2018-06-25T17:44:25.430Z,97819.11
2018-06-25T17:46:58.290Z,97824.09
2018-06-25T17:49:31.611Z,97824.45
2018-06-25T17:52:05.126Z,97831.05
2018-06-25T17:54:42.013Z,97823.19
2018-06-25T17:57:23.115Z,97824.13
2018-06-25T18:00:02.211Z,97833.73
2018-06-25T18:02:41.505Z,97828.39
2018-06-25T18:05:16.903Z,97838.41
2018-06-25T18:07:59.213Z,97840.15
2018-06-25T18:10:32.388Z,97840.19
2018-06-25T18:13:09.854Z,97840.02
2018-06-25T18:15:43.834Z,97836.70
2018-06-25T18:18:23.470Z,97841.19
2018-06-25T18:20:56.819Z,97843.36
2018-06-25T18:23:35.899Z,97843.44
2018-06-25T18:26:17.768Z,97841.19
2018-06-25T18:28:58.000Z,97851.31
2018-06-25T18:31:35.675Z,97852.77
2018-06-25T18:37:00.108Z,97861.70
2018-06-25T18:39:38.238Z,97867.63
2018-06-25T18:45:13.584Z,97867.22
2018-06-25T18:47:46.405Z,97872.43
2018-06-25T18:50:19.471Z,97877.03
2018-06-25T18:52:55.627Z,97874.95
2018-06-25T18:55:30.345Z,97887.77
2018-06-25T18:58:04.020Z,97892.17
2018-06-25T19:00:40.667Z,97895.95
2018-06-25T19:03:14.093Z,97900.61
2018-06-25T19:05:47.653Z,97903.86
2018-06-25T19:08:24.708Z,97905.27
2018-06-25T19:11:04.405Z,97908.27
2018-06-25T19:13:38.218Z,97912.45
2018-06-25T19:16:16.598Z,97913.92
2018-06-25T19:18:52.581Z,97924.37
2018-06-25T19:21:25.701Z,97924.84
2018-06-25T19:24:06.605Z,97932.62
2018-06-25T19:26:45.797Z,97935.50
2018-06-25T19:29:29.836Z,97934.84
2018-06-25T19:32:07.767Z,97937.06
2018-06-25T19:34:42.238Z,97938.67
2018-06-25T19:37:19.718Z,97946.20
2018-06-25T19:42:34.946Z,97944.85
2018-06-25T19:45:13.279Z,97954.71
2018-06-25T19:47:54.289Z,97969.14
2018-06-25T19:50:28.693Z,97962.17
2018-06-25T19:53:05.780Z,97958.77
2018-06-25T19:55:38.283Z,97967.44
2018-06-25T19:58:10.440Z,97975.20
2018-06-25T20:00:45.316Z,97979.08
2018-06-25T20:03:19.405Z,97976.97
2018-06-25T20:05:53.883Z,97978.08
2018-06-25T20:08:31.089Z,97986.60
2018-06-25T20:11:05.226Z,97977.33
2018-06-25T20:13:44.481Z,97981.04
2018-06-25T20:16:23.192Z,97972.95
2018-06-25T20:19:01.719Z,97979.16
2018-06-25T20:21:37.377Z,97976.17
2018-06-25T20:24:10.554Z,97982.38
2018-06-25T20:26:42.992Z,97982.30
2018-06-25T20:29:14.796Z,97984.50
2018-06-25T20:31:47.209Z,97987.41
2018-06-25T20:34:20.669Z,97983.70
2018-06-25T20:36:52.573Z,97991.29
2018-06-25T20:39:24.789Z,97988.56
2018-06-25T20:42:14.325Z,97982.09
2018-06-25T20:44:48.235Z,97989.04
2018-06-25T20:47:21.421Z,97987.41
2018-06-25T20:49:53.486Z,97995.05
2018-06-25T20:52:25.786Z,97981.68
2018-06-25T20:54:57.564Z,97979.96
2018-06-25T20:57:30.910Z,97978.45
2018-06-25T21:00:05.157Z,97971.21
2018-06-25T21:02:39.574Z,97977.03
2018-06-25T21:05:11.623Z,97980.30
2018-06-25T21:07:45.117Z,97985.84
2018-06-25T21:10:21.149Z,97986.66
2018-06-25T21:12:55.869Z,97983.24
2018-06-25T21:15:33.032Z,97991.86
2018-06-25T21:18:06.956Z,97994.38
2018-06-25T21:20:40.382Z,97993.35
2018-06-25T21:23:20.561Z,97998.76
2018-06-25T21:26:00.095Z,97992.97
2018-06-25T21:28:35.259Z,97996.09
2018-06-25T21:31:14.012Z,97994.42
2018-06-25T21:33:51.652Z,97992.78
2018-06-25T21:36:25.918Z,97989.31
2018-06-25T21:39:05.689Z,97993.39
2018-06-25T21:44:20.133Z,97988.77
2018-06-25T21:46:53.517Z,97987.22
2018-06-25T21:49:27.596Z,97984.47
2018-06-25T21:52:07.604Z,97977.84
2018-06-25T21:54:40.037Z,97987.00
2018-06-25T21:57:14.196Z,97978.64
2018-06-25T21:59:48.113Z,97977.12
2018-06-25T22:02:29.990Z,97977.45
2018-06-25T22:05:08.198Z,97985.00
2018-06-25T22:07:41.346Z,97976.91
2018-06-25T22:10:16.427Z,97976.59
2018-06-25T22:12:52.768Z,97979.22
2018-06-25T22:15:29.193Z,97983.80
2018-06-25T22:18:07.522Z,97984.88
2018-06-25T22:23:22.504Z,97976.66
2018-06-25T22:31:28.928Z,97973.77
2018-06-25T22:34:08.990Z,97971.58
2018-06-25T22:36:47.538Z,97973.29
2018-06-25T22:39:20.189Z,97966.18
2018-06-25T22:41:53.353Z,97974.37
2018-06-25T22:44:30.037Z,97978.70
2018-06-25T22:47:05.404Z,97977.17
2018-06-25T22:49:44.000Z,97975.00
2018-06-25T22:52:23.555Z,97973.34
2018-06-25T22:55:02.375Z,97975.06
2018-06-25T22:57:39.876Z,97978.63
2018-06-25T23:00:18.862Z,97974.09
2018-06-25T23:03:02.474Z,97970.82
2018-06-25T23:08:28.285Z,97971.87
2018-06-25T23:11:08.204Z,97976.13
2018-06-25T23:13:52.065Z,97970.35
2018-06-25T23:16:33.300Z,97961.53
2018-06-25T23:19:20.592Z,97958.69
2018-06-25T23:22:05.343Z,97962.92
2018-06-25T23:24:45.943Z,97961.66
2018-06-25T23:27:29.874Z,97954.80
2018-06-25T23:36:06.250Z,97951.76
2018-06-25T23:38:50.796Z,97954.31
2018-06-25T23:41:26.152Z,97951.56
2018-06-25T23:44:02.237Z,97950.20
2018-06-25T23:46:35.978Z,97953.27
2018-06-25T23:49:08.874Z,97947.16
2018-06-25T23:51:48.058Z,97951.36
2018-06-25T23:54:24.326Z,97956.06
2018-06-25T23:57:02.607Z,97948.09
2018-06-25T23:59:34.918Z,97947.89
